createdAt,value
2022-07-26T00:01:40.024Z,15.23
2022-07-26T00:04:07.901Z,15.40
2022-07-26T00:06:35.121Z,15.80
2022-07-26T00:09:02.192Z,15.55
2022-07-26T00:11:30.536Z,15.05
2022-07-26T00:13:57.724Z,15.18
2022-07-26T00:16:24.843Z,15.20
2022-07-26T00:18:51.959Z,15.23
2022-07-26T00:21:19.039Z,14.95
2022-07-26T00:23:51.891Z,14.98
2022-07-26T00:26:24.645Z,15.13
2022-07-26T00:28:51.658Z,15.38
2022-07-26T00:31:18.856Z,14.70
2022-07-26T00:33:45.928Z,15.43
2022-07-26T00:36:12.927Z,15.07
2022-07-26T00:38:40.661Z,14.95
2022-07-26T00:41:08.300Z,14.88
2022-07-26T00:43:35.652Z,14.90
2022-07-26T00:46:02.767Z,14.75
2022-07-26T00:48:29.899Z,14.82
2022-07-26T00:50:57.315Z,15.30
2022-07-26T00:53:24.501Z,15.25
2022-07-26T00:55:52.877Z,15.10
2022-07-26T00:58:19.951Z,14.82
2022-07-26T01:00:47.076Z,14.70
2022-07-26T01:03:14.263Z,14.95
2022-07-26T01:05:50.909Z,15.20
2022-07-26T01:08:18.113Z,14.93
2022-07-26T01:10:45.215Z,15.02
2022-07-26T01:13:13.325Z,15.02
2022-07-26T01:15:40.442Z,14.90
2022-07-26T01:18:07.644Z,15.27
2022-07-26T01:20:34.832Z,15.18
2022-07-26T01:23:02.055Z,15.82
2022-07-26T01:25:31.325Z,14.93
2022-07-26T01:27:58.549Z,15.30
2022-07-26T01:30:25.639Z,14.90
2022-07-26T01:32:52.692Z,14.52
2022-07-26T01:35:19.709Z,15.00
2022-07-26T01:37:46.750Z,14.90
2022-07-26T01:40:14.671Z,14.90
2022-07-26T01:42:41.812Z,15.20
2022-07-26T01:45:11.173Z,14.82
2022-07-26T01:47:39.580Z,14.88
2022-07-26T01:50:08.910Z,15.10
2022-07-26T01:52:36.120Z,15.40
2022-07-26T01:55:04.016Z,15.32
2022-07-26T01:57:31.089Z,15.07
2022-07-26T01:59:58.134Z,15.07
2022-07-26T02:02:25.415Z,15.30
2022-07-26T02:05:02.079Z,15.00
2022-07-26T02:07:31.511Z,15.35
2022-07-26T02:10:00.610Z,14.80
2022-07-26T02:12:27.787Z,15.15
2022-07-26T02:14:54.905Z,15.07
2022-07-26T02:17:21.930Z,15.18
2022-07-26T02:19:49.081Z,14.93
2022-07-26T02:22:16.220Z,15.40
2022-07-26T02:24:43.327Z,15.30
2022-07-26T02:27:10.444Z,15.40
2022-07-26T02:29:37.899Z,15.45
2022-07-26T02:32:05.641Z,14.73
2022-07-26T02:34:34.029Z,15.38
2022-07-26T02:37:01.364Z,15.23
2022-07-26T02:39:28.719Z,15.15
2022-07-26T02:42:01.991Z,15.23
2022-07-26T02:44:30.595Z,15.32
2022-07-26T02:46:57.655Z,15.20
2022-07-26T02:49:24.758Z,14.70
2022-07-26T02:51:52.348Z,14.82
2022-07-26T02:54:19.385Z,15.13
2022-07-26T02:56:46.396Z,14.98
2022-07-26T02:59:13.542Z,14.75
2022-07-26T03:01:40.606Z,14.90
2022-07-26T03:04:08.327Z,14.70
2022-07-26T03:06:35.724Z,14.95
2022-07-26T03:09:03.274Z,14.82
2022-07-26T03:11:30.392Z,15.10
2022-07-26T03:13:57.419Z,14.80
2022-07-26T03:16:29.062Z,14.50
2022-07-26T03:18:57.027Z,15.23
2022-07-26T03:21:24.279Z,14.80
2022-07-26T03:23:51.352Z,14.95
2022-07-26T03:26:18.349Z,14.45
2022-07-26T03:28:45.335Z,14.38
2022-07-26T03:31:13.187Z,14.35
2022-07-26T03:33:40.894Z,14.68
2022-07-26T03:36:15.321Z,14.40
2022-07-26T03:38:42.841Z,14.45
2022-07-26T03:41:13.429Z,14.30
2022-07-26T03:43:40.839Z,14.02
2022-07-26T03:46:07.970Z,14.43
2022-07-26T03:48:35.038Z,14.13
2022-07-26T03:51:02.339Z,14.50
2022-07-26T03:53:29.367Z,14.45
2022-07-26T03:56:15.162Z,14.60
2022-07-26T03:58:42.347Z,13.93
2022-07-26T04:01:09.459Z,14.45
2022-07-26T04:03:36.836Z,14.35
2022-07-26T04:06:05.347Z,14.30
2022-07-26T04:08:32.908Z,14.68
2022-07-26T04:11:00.046Z,14.70
2022-07-26T04:13:27.701Z,13.88
2022-07-26T04:15:54.770Z,14.68
2022-07-26T04:18:24.184Z,13.85
2022-07-26T04:20:52.051Z,14.05
2022-07-26T04:23:19.022Z,13.68
2022-07-26T04:25:46.011Z,13.98
2022-07-26T04:28:13.546Z,14.40
2022-07-26T04:30:40.892Z,13.65
2022-07-26T04:33:08.148Z,14.00
2022-07-26T04:35:35.508Z,14.07
2022-07-26T04:38:04.182Z,14.50
2022-07-26T04:40:33.779Z,13.95
2022-07-26T04:43:01.777Z,13.55
2022-07-26T04:45:30.037Z,13.50
2022-07-26T04:47:57.432Z,13.65
2022-07-26T04:50:25.355Z,13.98
2022-07-26T04:52:52.852Z,13.88
2022-07-26T04:55:20.593Z,13.80
2022-07-26T04:57:48.375Z,13.60
2022-07-26T05:00:22.958Z,13.68
2022-07-26T05:03:00.662Z,14.00
2022-07-26T05:05:30.238Z,14.00
2022-07-26T05:07:59.618Z,13.23
2022-07-26T05:10:35.519Z,13.43
2022-07-26T05:13:04.179Z,13.80
2022-07-26T05:15:36.780Z,13.98
2022-07-26T05:18:07.379Z,13.80
2022-07-26T05:20:37.062Z,13.73
2022-07-26T05:23:04.271Z,13.63
2022-07-26T05:25:31.352Z,14.07
2022-07-26T05:27:58.418Z,14.15
2022-07-26T05:30:25.541Z,13.77
2022-07-26T05:32:52.639Z,14.20
2022-07-26T05:35:19.687Z,13.85
2022-07-26T05:37:46.797Z,14.15
2022-07-26T05:40:14.120Z,14.00
2022-07-26T05:42:41.284Z,15.95
2022-07-26T05:45:09.122Z,15.25
2022-07-26T05:47:36.428Z,14.73
2022-07-26T05:50:04.609Z,14.15
2022-07-26T05:52:31.655Z,13.80
2022-07-26T05:54:59.014Z,14.30
2022-07-26T05:57:26.686Z,14.00
2022-07-26T05:59:53.667Z,13.98
2022-07-26T06:02:20.775Z,13.63
2022-07-26T06:04:47.949Z,13.82
2022-07-26T06:07:15.662Z,14.35
2022-07-26T06:09:42.919Z,14.07
2022-07-26T06:12:10.081Z,13.88
2022-07-26T06:14:37.173Z,13.95
2022-07-26T06:17:04.717Z,13.90
2022-07-26T06:19:32.414Z,14.50
2022-07-26T06:21:59.823Z,14.45
2022-07-26T06:24:26.947Z,14.65
2022-07-26T06:26:58.154Z,14.10
2022-07-26T06:29:32.714Z,14.20
2022-07-26T06:32:00.108Z,14.60
2022-07-26T06:34:27.364Z,14.38
2022-07-26T06:36:54.407Z,14.52
2022-07-26T06:39:21.472Z,13.93
2022-07-26T06:41:48.723Z,14.32
2022-07-26T06:44:15.724Z,14.07
2022-07-26T06:46:42.875Z,14.13
2022-07-26T06:49:09.932Z,14.50
2022-07-26T06:51:37.104Z,14.18
2022-07-26T06:54:05.784Z,14.38
2022-07-26T06:56:33.289Z,14.07
2022-07-26T06:59:00.289Z,14.07
2022-07-26T07:01:51.434Z,14.15
2022-07-26T07:04:14.311Z,14.77
2022-07-26T07:06:41.359Z,14.85
2022-07-26T07:09:09.063Z,14.35
2022-07-26T07:11:36.683Z,14.52
2022-07-26T07:14:05.335Z,14.98
2022-07-26T07:16:32.534Z,14.98
2022-07-26T07:18:59.574Z,14.38
2022-07-26T07:21:27.444Z,14.70
2022-07-26T07:23:54.464Z,15.00
2022-07-26T07:26:21.564Z,14.60
2022-07-26T07:28:48.776Z,15.23
2022-07-26T07:31:15.931Z,15.07
2022-07-26T07:33:52.581Z,14.80
2022-07-26T07:36:20.928Z,14.32
2022-07-26T07:38:49.141Z,15.20
2022-07-26T07:41:16.611Z,15.30
2022-07-26T07:43:43.643Z,14.93
2022-07-26T07:46:10.754Z,14.40
2022-07-26T07:48:43.413Z,14.57
2022-07-26T07:51:13.785Z,14.38
2022-07-26T07:53:40.826Z,14.35
2022-07-26T07:56:08.421Z,14.65
2022-07-26T07:58:35.418Z,14.73
2022-07-26T08:01:02.623Z,14.80
2022-07-26T08:03:38.832Z,15.38
2022-07-26T08:06:08.718Z,15.00
2022-07-26T08:08:36.980Z,15.05
2022-07-26T08:11:05.015Z,15.18
2022-07-26T08:13:35.195Z,15.48
2022-07-26T08:16:02.503Z,15.73
2022-07-26T08:18:29.687Z,15.68
2022-07-26T08:20:57.048Z,15.65
2022-07-26T08:23:24.137Z,14.98
2022-07-26T08:26:01.929Z,15.27
2022-07-26T08:28:47.741Z,15.25
2022-07-26T08:31:16.166Z,15.38
2022-07-26T08:33:46.348Z,15.40
2022-07-26T08:36:15.548Z,14.85
2022-07-26T08:38:43.385Z,15.13
2022-07-26T08:41:10.402Z,14.98
2022-07-26T08:43:45.290Z,15.05
2022-07-26T08:46:24.904Z,15.63
2022-07-26T08:48:53.034Z,15.00
2022-07-26T08:51:22.751Z,14.73
2022-07-26T08:53:50.803Z,14.60
2022-07-26T08:56:17.866Z,14.93
2022-07-26T08:58:45.789Z,15.10
2022-07-26T09:01:13.575Z,15.45
2022-07-26T09:03:45.390Z,15.70
2022-07-26T09:06:21.323Z,16.10
2022-07-26T09:08:50.882Z,15.00
2022-07-26T09:11:23.933Z,15.18
2022-07-26T09:14:11.234Z,15.32
2022-07-26T09:16:40.159Z,15.30
2022-07-26T09:19:22.811Z,15.43
2022-07-26T09:21:51.382Z,15.15
2022-07-26T09:24:35.946Z,15.25
2022-07-26T09:27:05.621Z,14.85
2022-07-26T09:29:52.558Z,15.02
2022-07-26T09:32:22.123Z,15.63
2022-07-26T09:34:54.355Z,15.20
2022-07-26T09:37:36.156Z,15.15
2022-07-26T09:40:09.709Z,14.85
2022-07-26T09:42:37.248Z,14.68
2022-07-26T09:45:16.644Z,14.38
2022-07-26T09:47:43.670Z,15.00
2022-07-26T09:50:11.642Z,14.68
2022-07-26T09:52:39.095Z,15.05
2022-07-26T09:55:07.853Z,14.90
2022-07-26T09:57:35.600Z,14.73
2022-07-26T10:00:05.986Z,14.70
2022-07-26T10:02:35.068Z,14.32
2022-07-26T10:05:02.238Z,14.40
2022-07-26T10:07:29.560Z,14.65
2022-07-26T10:10:11.587Z,14.73
2022-07-26T10:12:39.052Z,14.98
2022-07-26T10:15:06.646Z,14.35
2022-07-26T10:17:41.717Z,14.18
2022-07-26T10:20:17.421Z,14.45
2022-07-26T10:22:51.685Z,14.73
2022-07-26T10:25:18.748Z,15.18
2022-07-26T10:27:55.492Z,15.07
2022-07-26T10:30:33.548Z,14.70
2022-07-26T10:33:10.055Z,14.98
2022-07-26T10:35:42.107Z,14.68
2022-07-26T10:38:26.455Z,14.50
2022-07-26T10:41:03.654Z,14.55
2022-07-26T10:43:41.212Z,14.25
2022-07-26T10:46:18.664Z,15.00
2022-07-26T10:49:08.637Z,14.48
2022-07-26T10:51:40.744Z,14.95
2022-07-26T10:54:11.686Z,14.73
2022-07-26T10:56:39.607Z,14.82
2022-07-26T10:59:06.955Z,14.65
2022-07-26T11:01:39.092Z,14.32
2022-07-26T11:04:17.664Z,14.48
2022-07-26T11:06:45.940Z,14.60
2022-07-26T11:09:13.701Z,14.75
2022-07-26T11:11:47.062Z,14.85
2022-07-26T11:14:17.566Z,14.55
2022-07-26T11:16:50.155Z,15.00
2022-07-26T11:19:20.337Z,15.13
2022-07-26T11:22:00.297Z,15.13
2022-07-26T11:24:28.271Z,15.00
2022-07-26T11:26:55.732Z,15.32
2022-07-26T11:29:38.678Z,14.80
2022-07-26T11:32:20.435Z,14.32
2022-07-26T11:35:00.393Z,14.35
2022-07-26T11:37:28.212Z,14.73
2022-07-26T11:39:55.393Z,14.82
2022-07-26T11:42:22.746Z,14.75
2022-07-26T11:44:50.916Z,14.60
2022-07-26T11:47:20.572Z,15.27
2022-07-26T11:50:01.074Z,15.38
2022-07-26T11:52:35.793Z,14.88
2022-07-26T11:55:02.867Z,15.02
2022-07-26T11:57:31.896Z,14.98
2022-07-26T12:00:00.788Z,14.85
2022-07-26T12:02:29.448Z,15.25
2022-07-26T12:05:22.888Z,14.80
2022-07-26T12:07:59.519Z,15.03
2022-07-26T12:10:27.861Z,14.85
2022-07-26T12:13:27.357Z,14.32
2022-07-26T12:16:07.072Z,14.57
2022-07-26T12:18:35.461Z,14.40
2022-07-26T12:21:08.404Z,14.63
2022-07-26T12:23:48.792Z,14.63
2022-07-26T12:26:27.475Z,14.70
2022-07-26T12:28:55.770Z,14.45
2022-07-26T12:31:28.240Z,14.50
2022-07-26T12:33:55.937Z,14.60
2022-07-26T12:36:27.977Z,14.75
2022-07-26T12:39:00.562Z,14.90
2022-07-26T12:41:36.946Z,14.65
2022-07-26T12:44:06.053Z,15.13
2022-07-26T12:46:35.222Z,15.10
2022-07-26T12:49:04.229Z,14.93
2022-07-26T12:51:31.592Z,14.90
2022-07-26T12:53:59.008Z,15.13
2022-07-26T12:56:25.982Z,14.55
2022-07-26T12:58:54.231Z,14.20
2022-07-26T13:01:21.761Z,15.27
2022-07-26T13:03:48.943Z,14.98
2022-07-26T13:06:15.921Z,15.55
2022-07-26T13:08:42.935Z,14.73
2022-07-26T13:11:10.517Z,14.70
2022-07-26T13:13:37.603Z,14.68
2022-07-26T13:16:11.156Z,14.27
2022-07-26T13:18:39.020Z,14.63
2022-07-26T13:21:06.140Z,14.90
2022-07-26T13:23:35.758Z,14.55
2022-07-26T13:26:04.483Z,14.82
2022-07-26T13:28:36.531Z,14.70
2022-07-26T13:31:03.908Z,14.45
2022-07-26T13:33:32.135Z,14.68
2022-07-26T13:35:59.134Z,14.43
2022-07-26T13:38:28.070Z,14.70
2022-07-26T13:40:55.148Z,14.35
2022-07-26T13:43:22.175Z,14.35
2022-07-26T13:45:49.256Z,14.35
2022-07-26T13:48:16.507Z,14.68
2022-07-26T13:50:43.714Z,16.13
2022-07-26T13:53:10.747Z,15.00
2022-07-26T13:55:37.933Z,14.48
2022-07-26T13:58:09.667Z,14.38
2022-07-26T14:00:37.697Z,14.63
2022-07-26T14:03:05.249Z,14.65
2022-07-26T14:05:32.503Z,14.52
2022-07-26T14:07:59.648Z,14.50
2022-07-26T14:10:26.790Z,14.65
2022-07-26T14:12:53.820Z,14.68
2022-07-26T14:15:23.141Z,14.95
2022-07-26T14:17:53.731Z,14.68
2022-07-26T14:20:21.759Z,15.90
2022-07-26T14:22:49.511Z,15.15
2022-07-26T14:25:16.489Z,15.35
2022-07-26T14:27:43.661Z,14.30
2022-07-26T14:30:11.455Z,14.75
2022-07-26T14:32:38.540Z,15.02
2022-07-26T14:35:06.485Z,14.23
2022-07-26T14:37:43.176Z,14.40
2022-07-26T14:40:15.034Z,14.35
2022-07-26T14:42:42.429Z,14.07
2022-07-26T14:45:10.153Z,14.07
2022-07-26T14:47:37.485Z,14.25
2022-07-26T14:50:07.551Z,14.32
2022-07-26T14:52:38.591Z,14.45
2022-07-26T14:55:06.638Z,14.15
2022-07-26T14:57:34.006Z,14.20
2022-07-26T15:00:09.638Z,14.40
2022-07-26T15:02:39.537Z,14.60
2022-07-26T15:05:06.815Z,14.68
2022-07-26T15:07:33.860Z,14.32
2022-07-26T15:10:00.883Z,14.93
2022-07-26T15:12:27.973Z,14.05
2022-07-26T15:14:54.995Z,14.88
2022-07-26T15:17:22.000Z,14.98
2022-07-26T15:19:49.012Z,15.52
2022-07-26T15:22:16.068Z,15.48
2022-07-26T15:24:43.225Z,14.32
2022-07-26T15:27:10.472Z,14.50
2022-07-26T15:29:38.083Z,14.13
2022-07-26T15:32:06.228Z,14.55
2022-07-26T15:34:33.992Z,14.48
2022-07-26T15:37:01.681Z,14.48
2022-07-26T15:39:28.684Z,14.65
2022-07-26T15:41:55.787Z,14.82
2022-07-26T15:44:25.625Z,14.02
2022-07-26T15:46:53.312Z,14.40
2022-07-26T15:49:20.531Z,14.38
2022-07-26T15:51:47.837Z,14.20
2022-07-26T15:54:16.449Z,14.25
2022-07-26T15:56:44.220Z,14.48
2022-07-26T15:59:12.125Z,14.50
2022-07-26T16:01:39.356Z,14.05
2022-07-26T16:04:07.270Z,14.20
2022-07-26T16:06:35.317Z,14.32
2022-07-26T16:09:16.557Z,14.65
2022-07-26T16:11:45.850Z,14.52
2022-07-26T16:14:12.889Z,14.35
2022-07-26T16:16:40.124Z,13.75
2022-07-26T16:19:07.391Z,13.70
2022-07-26T16:21:34.575Z,14.25
2022-07-26T16:24:06.276Z,14.27
2022-07-26T16:26:34.245Z,15.25
2022-07-26T16:29:01.253Z,14.52
2022-07-26T16:31:28.510Z,14.90
2022-07-26T16:33:55.567Z,15.07
2022-07-26T16:36:22.592Z,15.50
2022-07-26T16:38:49.603Z,15.88
2022-07-26T16:41:16.615Z,15.55
2022-07-26T16:43:43.603Z,15.60
2022-07-26T16:46:10.868Z,14.95
2022-07-26T16:48:37.964Z,15.07
2022-07-26T16:51:05.284Z,15.07
2022-07-26T16:53:32.307Z,14.95
2022-07-26T16:55:59.503Z,14.90
2022-07-26T16:58:26.573Z,14.52
2022-07-26T17:00:53.805Z,14.20
2022-07-26T17:03:20.961Z,14.70
2022-07-26T17:05:47.995Z,14.43
2022-07-26T17:08:15.203Z,14.38
2022-07-26T17:10:43.122Z,14.57
2022-07-26T17:13:10.164Z,14.00
2022-07-26T17:15:37.250Z,14.25
2022-07-26T17:18:04.619Z,14.15
2022-07-26T17:20:31.748Z,13.90
2022-07-26T17:22:58.775Z,14.30
2022-07-26T17:25:25.817Z,14.05
2022-07-26T17:27:53.226Z,14.27
2022-07-26T17:30:20.292Z,14.10
2022-07-26T17:32:47.419Z,13.65
2022-07-26T17:35:14.653Z,13.60
2022-07-26T17:37:41.899Z,13.10
2022-07-26T17:40:10.877Z,13.55
2022-07-26T17:42:38.380Z,13.57
2022-07-26T17:45:06.694Z,13.45
2022-07-26T17:47:33.792Z,13.35
2022-07-26T17:52:53.495Z,13.63
2022-07-26T17:55:21.219Z,13.63
2022-07-26T17:57:49.687Z,13.20
2022-07-26T18:00:19.552Z,13.63
2022-07-26T18:02:47.239Z,13.80
2022-07-26T18:05:14.738Z,13.43
2022-07-26T18:07:41.963Z,13.73
2022-07-26T18:10:10.205Z,13.63
2022-07-26T18:12:37.391Z,13.50
2022-07-26T18:15:05.292Z,13.70
2022-07-26T18:17:32.963Z,13.65
2022-07-26T18:19:59.932Z,13.48
2022-07-26T18:22:27.449Z,13.30
2022-07-26T18:24:54.552Z,13.43
2022-07-26T18:27:22.485Z,13.38
2022-07-26T18:29:49.750Z,13.98
2022-07-26T18:32:16.975Z,14.40
2022-07-26T18:34:51.600Z,14.55
2022-07-26T18:37:20.680Z,14.48
2022-07-26T18:39:48.401Z,14.80
2022-07-26T18:42:15.855Z,14.88
2022-07-26T18:44:42.866Z,14.07
2022-07-26T18:47:09.864Z,13.65
2022-07-26T18:49:37.042Z,14.35
2022-07-26T18:52:08.779Z,14.05
2022-07-26T18:54:36.792Z,14.45
2022-07-26T18:57:04.415Z,14.18
2022-07-26T18:59:31.703Z,14.35
2022-07-26T19:02:00.209Z,14.20
2022-07-26T19:04:27.801Z,14.40
2022-07-26T19:06:54.891Z,14.50
2022-07-26T19:09:22.101Z,15.25
2022-07-26T19:11:49.151Z,15.07
2022-07-26T19:14:16.163Z,14.75
2022-07-26T19:16:43.148Z,14.75
2022-07-26T19:19:10.708Z,14.73
2022-07-26T19:21:38.294Z,14.80
2022-07-26T19:24:05.734Z,14.65
2022-07-26T19:26:32.831Z,14.52
2022-07-26T19:28:59.828Z,14.63
2022-07-26T19:31:26.950Z,14.98
2022-07-26T19:33:53.930Z,14.18
2022-07-26T19:36:25.362Z,14.20
2022-07-26T19:38:52.868Z,14.02
2022-07-26T19:41:20.153Z,14.20
2022-07-26T19:43:47.220Z,14.43
2022-07-26T19:46:14.456Z,14.13
2022-07-26T19:48:41.625Z,14.25
2022-07-26T19:51:08.769Z,14.63
2022-07-26T19:53:35.842Z,14.60
2022-07-26T19:56:03.661Z,14.48
2022-07-26T19:58:31.091Z,14.57
2022-07-26T20:00:58.168Z,14.23
2022-07-26T20:03:25.252Z,14.40
2022-07-26T20:05:53.760Z,14.32
2022-07-26T20:08:21.042Z,14.50
2022-07-26T20:10:48.156Z,14.80
2022-07-26T20:13:15.307Z,14.52
2022-07-26T20:15:42.507Z,14.38
2022-07-26T20:18:10.558Z,14.95
2022-07-26T20:20:37.680Z,14.48
2022-07-26T20:23:06.204Z,14.35
2022-07-26T20:25:34.117Z,14.63
2022-07-26T20:28:01.252Z,14.40
2022-07-26T20:30:29.446Z,14.70
2022-07-26T20:32:56.629Z,14.57
2022-07-26T20:35:23.683Z,14.32
2022-07-26T20:37:50.670Z,14.32
2022-07-26T20:40:18.020Z,14.63
2022-07-26T20:42:47.593Z,14.90
2022-07-26T20:45:17.430Z,14.68
2022-07-26T20:47:44.444Z,14.73
2022-07-26T20:50:12.266Z,15.20
2022-07-26T20:52:40.030Z,15.10
2022-07-26T20:55:08.192Z,15.10
2022-07-26T20:57:36.083Z,14.80
2022-07-26T21:00:06.887Z,15.50
2022-07-26T21:02:34.288Z,14.77
2022-07-26T21:05:01.456Z,14.70
2022-07-26T21:07:57.196Z,14.55
2022-07-26T21:10:15.664Z,14.40
2022-07-26T21:12:42.879Z,15.23
2022-07-26T21:15:10.523Z,14.43
2022-07-26T21:17:38.167Z,14.75
2022-07-26T21:20:05.940Z,14.27
2022-07-26T21:22:33.035Z,14.68
2022-07-26T21:25:00.464Z,14.80
2022-07-26T21:27:27.492Z,14.75
2022-07-26T21:29:54.496Z,15.10
2022-07-26T21:32:21.478Z,14.88
2022-07-26T21:34:48.588Z,14.50
2022-07-26T21:37:15.666Z,15.02
2022-07-26T21:39:42.839Z,15.10
2022-07-26T21:42:09.885Z,15.07
2022-07-26T21:44:36.906Z,14.82
2022-07-26T21:47:05.881Z,15.18
2022-07-26T21:49:33.959Z,14.98
2022-07-26T21:52:01.044Z,14.65
2022-07-26T21:54:28.082Z,15.02
2022-07-26T21:56:55.172Z,14.75
2022-07-26T21:59:22.246Z,14.90
2022-07-26T22:01:49.341Z,14.65
2022-07-26T22:04:17.942Z,14.50
2022-07-26T22:06:45.114Z,14.80
2022-07-26T22:09:12.407Z,14.70
2022-07-26T22:11:39.796Z,14.57
2022-07-26T22:14:08.542Z,14.18
2022-07-26T22:16:36.115Z,14.57
2022-07-26T22:19:03.236Z,14.95
2022-07-26T22:21:30.336Z,15.15
2022-07-26T22:23:57.368Z,14.73
2022-07-26T22:26:27.679Z,15.30
2022-07-26T22:28:54.696Z,15.32
2022-07-26T22:31:21.803Z,15.23
2022-07-26T22:33:49.460Z,15.30
2022-07-26T22:36:17.894Z,14.82
2022-07-26T22:38:46.468Z,14.70
2022-07-26T22:41:14.063Z,14.95
2022-07-26T22:43:41.108Z,15.02
2022-07-26T22:46:08.208Z,14.65
2022-07-26T22:48:38.386Z,14.93
2022-07-26T22:51:05.980Z,14.82
2022-07-26T22:53:33.039Z,14.82
2022-07-26T22:56:00.009Z,15.25
2022-07-26T22:58:26.958Z,14.88
2022-07-26T23:00:54.719Z,14.75
2022-07-26T23:03:22.098Z,15.50
2022-07-26T23:05:50.341Z,15.15
2022-07-26T23:08:45.686Z,15.32
2022-07-26T23:11:05.684Z,14.95
2022-07-26T23:13:32.744Z,15.50
2022-07-26T23:16:01.189Z,15.70
2022-07-26T23:18:28.934Z,15.90
2022-07-26T23:20:55.992Z,15.13
2022-07-26T23:23:23.113Z,14.77
2022-07-26T23:25:52.427Z,15.35
2022-07-26T23:28:36.596Z,14.98
2022-07-26T23:31:07.842Z,15.13
2022-07-26T23:33:52.258Z,15.52
2022-07-26T23:36:25.594Z,15.40
2022-07-26T23:38:53.535Z,15.38
2022-07-26T23:41:20.997Z,15.65
2022-07-26T23:43:48.076Z,15.07
2022-07-26T23:46:15.307Z,15.30
2022-07-26T23:48:42.411Z,15.00
2022-07-26T23:51:09.538Z,15.00
2022-07-26T23:53:36.825Z,15.35
2022-07-26T23:56:04.050Z,15.93
2022-07-26T23:58:31.052Z,15.18
